createdAt,value
2017-11-18T00:02:20.463Z,98021.98
2017-11-18T00:04:48.021Z,98024.73
2017-11-18T00:07:15.582Z,98028.03
2017-11-18T00:09:43.180Z,98025.40
2017-11-18T00:12:10.904Z,98026.02
2017-11-18T00:14:38.467Z,98030.60
2017-11-18T00:17:05.999Z,98025.97
2017-11-18T00:19:33.988Z,98027.48
2017-11-18T00:22:01.508Z,98023.45
2017-11-18T00:24:29.036Z,98022.84
2017-11-18T00:26:56.582Z,98014.44
2017-11-18T00:29:24.124Z,98011.31
2017-11-18T00:31:51.682Z,98012.11
2017-11-18T00:34:19.445Z,98009.51
2017-11-18T00:36:46.968Z,98011.72
2017-11-18T00:39:14.493Z,98012.16
2017-11-18T00:41:42.238Z,98013.83
2017-11-18T00:44:09.807Z,98018.05
2017-11-18T00:46:37.353Z,98019.31
2017-11-18T00:49:04.919Z,98022.56
2017-11-18T00:51:32.461Z,98027.25
2017-11-18T00:54:17.640Z,98026.52
2017-11-18T00:56:45.163Z,98021.47
2017-11-18T00:59:12.683Z,98029.95
2017-11-18T01:01:40.248Z,98027.32
2017-11-18T01:04:08.178Z,98014.61
2017-11-18T01:06:35.757Z,98021.31
2017-11-18T01:09:03.699Z,98012.45
2017-11-18T01:11:31.232Z,98015.23
2017-11-18T01:13:58.755Z,98006.19
2017-11-18T01:16:26.321Z,98005.54
2017-11-18T01:18:53.848Z,98011.73
2017-11-18T01:21:21.402Z,98007.98
2017-11-18T01:23:49.214Z,98006.63
2017-11-18T01:26:16.822Z,98002.77
2017-11-18T01:28:44.415Z,98005.72
2017-11-18T01:31:12.144Z,98008.49
2017-11-18T01:33:39.705Z,98007.27
2017-11-18T01:36:07.235Z,98007.83
2017-11-18T01:38:34.824Z,98009.34
2017-11-18T01:41:02.385Z,98006.31
2017-11-18T01:43:29.976Z,98004.75
2017-11-18T01:45:57.638Z,97994.59
2017-11-18T01:48:25.147Z,97990.61
2017-11-18T01:50:52.662Z,98001.34
2017-11-18T01:53:20.485Z,97999.69
2017-11-18T01:55:48.045Z,98004.08
2017-11-18T01:58:15.576Z,98010.27
2017-11-18T02:00:43.469Z,98003.31
2017-11-18T02:03:11.008Z,98010.34
2017-11-18T02:05:38.563Z,98008.82
2017-11-18T02:08:06.352Z,98008.11
2017-11-18T02:10:33.862Z,98008.47
2017-11-18T02:13:01.395Z,98011.47
2017-11-18T02:15:28.952Z,98010.92
2017-11-18T02:17:56.487Z,98003.22
2017-11-18T02:20:24.051Z,98005.44
2017-11-18T02:22:52.024Z,97994.80
2017-11-18T02:25:19.582Z,97983.55
2017-11-18T02:27:47.111Z,97990.03
2017-11-18T02:30:15.075Z,97988.95
2017-11-18T02:32:42.596Z,97982.83
2017-11-18T02:35:10.137Z,97980.19
2017-11-18T02:37:38.075Z,97987.54
2017-11-18T02:40:05.595Z,97978.14
2017-11-18T02:42:33.160Z,97981.27
2017-11-18T02:45:00.863Z,97977.86
2017-11-18T02:47:28.436Z,97982.16
2017-11-18T02:49:55.984Z,97981.56
2017-11-18T02:52:23.729Z,97987.08
2017-11-18T02:54:51.255Z,97973.70
2017-11-18T02:57:18.776Z,97974.61
2017-11-18T02:59:46.371Z,97970.27
2017-11-18T03:02:13.894Z,97966.59
2017-11-18T03:04:41.439Z,97964.86
2017-11-18T03:07:09.182Z,97975.38
2017-11-18T03:09:36.721Z,97969.08
2017-11-18T03:12:04.271Z,97964.02
2017-11-18T03:14:32.313Z,97967.84
2017-11-18T03:16:59.839Z,97958.87
2017-11-18T03:19:27.366Z,97962.76
2017-11-18T03:21:54.924Z,97959.03
2017-11-18T03:24:22.456Z,97957.68
2017-11-18T03:26:49.983Z,97953.91
2017-11-18T03:29:17.608Z,97951.00
2017-11-18T03:31:45.135Z,97944.58
2017-11-18T03:34:12.664Z,97948.08
2017-11-18T03:36:40.240Z,97953.78
2017-11-18T03:39:07.778Z,97954.61
2017-11-18T03:41:35.343Z,97952.88
2017-11-18T03:44:03.184Z,97951.19
2017-11-18T03:46:30.700Z,97946.50
2017-11-18T03:48:58.235Z,97955.27
2017-11-18T03:51:26.107Z,97941.64
2017-11-18T03:53:53.682Z,97953.19
2017-11-18T03:56:21.209Z,97947.83
2017-11-18T03:58:48.796Z,97953.17
2017-11-18T04:01:16.331Z,97952.50
2017-11-18T04:03:44.951Z,97948.65
2017-11-18T04:06:12.653Z,97943.12
2017-11-18T04:08:40.171Z,97940.59
2017-11-18T04:11:07.704Z,97937.43
2017-11-18T04:13:35.447Z,97931.53
2017-11-18T04:16:03.016Z,97931.72
2017-11-18T04:18:30.565Z,97932.91
2017-11-18T04:20:58.410Z,97935.84
2017-11-18T04:23:25.938Z,97924.42
2017-11-18T04:25:53.460Z,97929.84
2017-11-18T04:28:21.011Z,97931.75
2017-11-18T04:30:48.567Z,97935.37
2017-11-18T04:33:16.130Z,97934.83
2017-11-18T04:35:43.984Z,97933.56
2017-11-18T04:38:11.552Z,97933.02
2017-11-18T04:40:39.113Z,97928.33
2017-11-18T04:43:06.692Z,97929.53
2017-11-18T04:45:34.254Z,97922.93
2017-11-18T04:48:01.783Z,97929.18
2017-11-18T04:50:29.551Z,97926.41
2017-11-18T04:52:57.117Z,97930.07
2017-11-18T04:55:24.670Z,97936.70
2017-11-18T04:57:52.232Z,97933.57
2017-11-18T05:00:19.750Z,97927.86
2017-11-18T05:02:47.273Z,97931.28
2017-11-18T05:05:15.051Z,97925.08
2017-11-18T05:07:42.578Z,97928.37
2017-11-18T05:10:10.125Z,97932.05
2017-11-18T05:12:37.893Z,97935.20
2017-11-18T05:15:05.448Z,97927.84
2017-11-18T05:17:33.009Z,97931.17
2017-11-18T05:20:00.755Z,97924.84
2017-11-18T05:22:28.298Z,97930.51
2017-11-18T05:24:55.811Z,97934.53
2017-11-18T05:27:23.360Z,97928.28
2017-11-18T05:29:50.908Z,97933.63
2017-11-18T05:32:18.480Z,97935.49
2017-11-18T05:34:46.023Z,97936.40
2017-11-18T05:37:13.567Z,97932.91
2017-11-18T05:39:41.091Z,97925.20
2017-11-18T05:42:08.659Z,97925.37
2017-11-18T05:44:36.199Z,97930.37
2017-11-18T05:47:03.721Z,97931.69
2017-11-18T05:49:31.303Z,97932.83
2017-11-18T05:51:58.829Z,97927.89
2017-11-18T05:54:26.340Z,97928.33
2017-11-18T05:56:53.979Z,97928.77
2017-11-18T05:59:21.501Z,97931.76
2017-11-18T06:01:49.071Z,97937.59
2017-11-18T06:04:16.808Z,97935.85
2017-11-18T06:06:44.324Z,97934.28
2017-11-18T06:09:12.788Z,97925.85
2017-11-18T06:11:40.355Z,97924.11
2017-11-18T06:14:07.865Z,97926.52
2017-11-18T06:16:35.382Z,97927.31
2017-11-18T06:19:03.122Z,97927.73
2017-11-18T06:21:30.669Z,97935.41
2017-11-18T06:23:58.187Z,97929.53
2017-11-18T06:26:25.865Z,97924.28
2017-11-18T06:28:53.424Z,97923.86
2017-11-18T06:31:20.940Z,97922.25
2017-11-18T06:33:48.670Z,97919.56
2017-11-18T06:36:16.331Z,97921.05
2017-11-18T06:38:43.855Z,97921.42
2017-11-18T06:41:11.406Z,97932.05
2017-11-18T06:43:38.932Z,97924.84
2017-11-18T06:46:06.509Z,97936.88
2017-11-18T06:48:34.234Z,97937.66
2017-11-18T06:51:01.760Z,97938.38
2017-11-18T06:53:29.270Z,97945.11
2017-11-18T06:55:56.992Z,97943.75
2017-11-18T06:58:24.508Z,97946.98
2017-11-18T07:00:52.034Z,97947.05
2017-11-18T07:03:19.863Z,97952.51
2017-11-18T07:05:47.376Z,97947.45
2017-11-18T07:08:15.925Z,97948.48
2017-11-18T07:10:43.504Z,97946.68
2017-11-18T07:13:11.048Z,97946.08
2017-11-18T07:15:38.609Z,97951.66
2017-11-18T07:18:06.582Z,97945.72
2017-11-18T07:20:34.135Z,97951.14
2017-11-18T07:23:01.694Z,97954.20
2017-11-18T07:25:29.277Z,97950.05
2017-11-18T07:27:56.812Z,97952.64
2017-11-18T07:30:24.322Z,97955.70
2017-11-18T07:32:52.140Z,97953.09
2017-11-18T07:35:19.695Z,97954.14
2017-11-18T07:37:47.458Z,97954.55
2017-11-18T07:40:15.146Z,97953.65
2017-11-18T07:42:42.691Z,97957.80
2017-11-18T07:45:10.219Z,97952.75
2017-11-18T07:47:38.103Z,97947.70
2017-11-18T07:50:05.664Z,97945.79
2017-11-18T07:52:33.223Z,97942.81
2017-11-18T07:55:00.882Z,97932.63
2017-11-18T07:57:28.410Z,97933.39
2017-11-18T07:59:56.923Z,97930.43
2017-11-18T08:02:24.507Z,97925.97
2017-11-18T08:04:52.300Z,97933.63
2017-11-18T08:07:19.908Z,97927.14
2017-11-18T08:09:47.461Z,97932.77
2017-11-18T08:12:15.038Z,97936.39
2017-11-18T08:14:42.584Z,97927.73
2017-11-18T08:17:10.148Z,97928.33
2017-11-18T08:19:37.787Z,97930.97
2017-11-18T08:22:05.365Z,97927.08
2017-11-18T08:24:33.231Z,97938.67
2017-11-18T08:27:00.790Z,97937.46
2017-11-18T08:29:28.355Z,97941.86
2017-11-18T08:31:56.112Z,97944.91
2017-11-18T08:34:23.671Z,97940.36
2017-11-18T08:36:51.335Z,97936.51
2017-11-18T08:39:18.911Z,97935.24
2017-11-18T08:41:46.483Z,97933.01
2017-11-18T08:44:14.026Z,97928.34
2017-11-18T08:46:41.588Z,97914.50
2017-11-18T08:49:09.129Z,97911.38
2017-11-18T08:51:36.688Z,97918.73
2017-11-18T08:54:04.259Z,97929.58
2017-11-18T08:56:31.785Z,97939.64
2017-11-18T08:58:59.299Z,97932.27
2017-11-18T09:01:27.429Z,97928.80
2017-11-18T09:03:54.995Z,97923.95
2017-11-18T09:06:22.576Z,97917.30
2017-11-18T09:08:50.245Z,97917.01
2017-11-18T09:11:17.983Z,97916.73
2017-11-18T09:13:45.669Z,97916.73
2017-11-18T09:16:13.442Z,97915.61
2017-11-18T09:18:41.681Z,97919.72
2017-11-18T09:21:09.444Z,97925.95
2017-11-18T09:23:37.412Z,97930.99
2017-11-18T09:26:05.013Z,97926.16
2017-11-18T09:28:32.641Z,97925.80
2017-11-18T09:31:00.480Z,97926.86
2017-11-18T09:33:28.122Z,97926.89
2017-11-18T09:35:55.835Z,97920.84
2017-11-18T09:38:23.707Z,97922.74
2017-11-18T09:40:51.555Z,97917.07
2017-11-18T09:43:19.835Z,97908.36
2017-11-18T09:45:47.912Z,97898.17
2017-11-18T09:48:16.291Z,97885.84
2017-11-18T09:50:44.268Z,97888.73
2017-11-18T09:53:12.525Z,97880.36
2017-11-18T09:55:40.705Z,97879.20
2017-11-18T09:58:08.667Z,97877.92
2017-11-18T10:00:36.943Z,97876.94
2017-11-18T10:03:04.724Z,97872.63
2017-11-18T10:05:32.576Z,97870.23
2017-11-18T10:08:00.646Z,97867.87
2017-11-18T10:10:28.511Z,97873.70
2017-11-18T10:12:56.384Z,97869.40
2017-11-18T10:15:24.449Z,97867.98
2017-11-18T10:17:52.214Z,97870.05
2017-11-18T10:20:20.078Z,97862.73
2017-11-18T10:22:48.013Z,97864.67
2017-11-18T10:25:17.654Z,97866.09
2017-11-18T10:27:45.432Z,97862.41
2017-11-18T10:30:13.612Z,97867.16
2017-11-18T10:32:41.579Z,97865.21
2017-11-18T10:35:09.324Z,97856.48
2017-11-18T10:37:38.891Z,97862.55
2017-11-18T10:40:06.707Z,97862.52
2017-11-18T10:42:34.816Z,97859.11
2017-11-18T10:45:03.145Z,97859.42
2017-11-18T10:47:31.736Z,97852.25
2017-11-18T10:50:00.417Z,97847.52
2017-11-18T10:52:28.281Z,97849.91
2017-11-18T10:54:56.144Z,97839.72
2017-11-18T10:57:23.912Z,97842.19
2017-11-18T10:59:52.410Z,97844.73
2017-11-18T11:02:20.146Z,97835.92
2017-11-18T11:04:48.024Z,97840.17
2017-11-18T11:07:15.951Z,97827.92
2017-11-18T11:09:44.124Z,97829.55
2017-11-18T11:12:12.029Z,97821.11
2017-11-18T11:14:40.042Z,97826.89
2017-11-18T11:17:07.925Z,97824.77
2017-11-18T11:19:35.730Z,97817.16
2017-11-18T11:22:03.732Z,97821.72
2017-11-18T11:24:31.667Z,97814.61
2017-11-18T11:26:59.448Z,97813.02
2017-11-18T11:29:28.235Z,97795.77
2017-11-18T11:31:56.289Z,97799.23
2017-11-18T11:34:24.157Z,97802.91
2017-11-18T11:36:52.227Z,97800.34
2017-11-18T11:39:19.997Z,97790.31
2017-11-18T11:41:47.993Z,97790.05
2017-11-18T11:44:16.136Z,97785.27
2017-11-18T11:46:44.003Z,97782.36
2017-11-18T11:49:11.763Z,97778.17
2017-11-18T11:51:39.528Z,97779.75
2017-11-18T11:54:07.083Z,97777.17
2017-11-18T11:56:34.748Z,97765.20
2017-11-18T11:59:03.330Z,97768.84
2017-11-18T12:01:31.040Z,97761.17
2017-11-18T12:03:58.965Z,97767.25
2017-11-18T12:06:26.947Z,97771.19
2017-11-18T12:08:54.702Z,97764.24
2017-11-18T12:11:23.379Z,97756.02
2017-11-18T12:13:51.352Z,97759.86
2017-11-18T12:16:19.321Z,97762.44
2017-11-18T12:18:47.146Z,97765.41
2017-11-18T12:21:15.870Z,97761.95
2017-11-18T12:23:43.808Z,97760.45
2017-11-18T12:26:11.709Z,97763.53
2017-11-18T12:28:40.201Z,97762.76
2017-11-18T12:31:08.264Z,97759.28
2017-11-18T12:33:35.942Z,97758.08
2017-11-18T12:36:04.090Z,97755.85
2017-11-18T12:38:31.963Z,97742.25
2017-11-18T12:41:00.743Z,97734.77
2017-11-18T12:43:28.712Z,97733.45
2017-11-18T12:45:56.579Z,97734.63
2017-11-18T12:48:24.460Z,97736.58
2017-11-18T12:50:52.721Z,97735.13
2017-11-18T12:53:20.490Z,97730.14
2017-11-18T12:55:48.352Z,97725.93
2017-11-18T12:58:16.523Z,97736.76
2017-11-18T13:00:44.445Z,97732.48
2017-11-18T13:03:12.149Z,97726.49
2017-11-18T13:05:40.328Z,97727.34
2017-11-18T13:08:09.012Z,97732.73
2017-11-18T13:10:36.799Z,97733.22
2017-11-18T13:13:08.849Z,97732.65
2017-11-18T13:15:36.568Z,97725.05
2017-11-18T13:18:04.267Z,97732.97
2017-11-18T13:20:31.994Z,97736.34
2017-11-18T13:22:59.665Z,97724.14
2017-11-18T13:25:27.676Z,97717.77
2017-11-18T13:27:55.219Z,97715.76
2017-11-18T13:30:22.743Z,97717.77
2017-11-18T13:32:51.466Z,97721.67
2017-11-18T13:35:22.619Z,97711.14
2017-11-18T13:37:50.634Z,97721.59
2017-11-18T13:40:18.546Z,97717.13
2017-11-18T13:42:47.234Z,97716.86
2017-11-18T13:45:15.099Z,97722.84
2017-11-18T13:47:43.580Z,97720.08
2017-11-18T13:50:11.537Z,97710.30
2017-11-18T13:52:39.620Z,97713.66
2017-11-18T13:55:07.363Z,97707.50
2017-11-18T13:57:37.644Z,97720.17
2017-11-18T14:00:07.811Z,97725.97
2017-11-18T14:02:35.798Z,97727.30
2017-11-18T14:05:03.765Z,97732.99
2017-11-18T14:07:33.947Z,97737.53
2017-11-18T14:10:01.654Z,97727.95
2017-11-18T14:12:29.429Z,97725.31
2017-11-18T14:14:57.583Z,97728.83
2017-11-18T14:17:25.436Z,97740.75
2017-11-18T14:19:53.112Z,97735.81
2017-11-18T14:22:20.875Z,97734.69
2017-11-18T14:24:48.743Z,97734.14
2017-11-18T14:27:16.609Z,97727.09
2017-11-18T14:29:44.555Z,97734.59
2017-11-18T14:32:12.346Z,97738.11
2017-11-18T14:34:40.008Z,97732.02
2017-11-18T14:37:08.178Z,97728.76
2017-11-18T14:39:36.148Z,97732.78
2017-11-18T14:42:03.745Z,97726.73
2017-11-18T14:44:32.797Z,97735.13
2017-11-18T14:47:00.665Z,97734.11
2017-11-18T14:49:28.591Z,97739.43
2017-11-18T14:51:56.501Z,97742.85
2017-11-18T14:54:24.265Z,97741.86
2017-11-18T14:56:51.999Z,97743.19
2017-11-18T14:59:20.120Z,97738.58
2017-11-18T15:01:48.273Z,97739.59
2017-11-18T15:04:16.548Z,97745.73
2017-11-18T15:06:44.722Z,97732.21
2017-11-18T15:09:12.690Z,97734.95
2017-11-18T15:11:40.689Z,97734.84
2017-11-18T15:14:08.940Z,97732.09
2017-11-18T15:19:47.676Z,97728.06
2017-11-18T15:22:16.541Z,97739.81
2017-11-18T15:24:50.270Z,97738.84
2017-11-18T15:27:24.692Z,97729.35
2017-11-18T15:30:02.606Z,97733.30
2017-11-18T15:36:00.277Z,97728.93
2017-11-18T15:38:33.673Z,97733.06
2017-11-18T15:41:01.752Z,97727.83
2017-11-18T15:49:43.065Z,97731.61
2017-11-18T15:55:28.154Z,97729.20
2017-11-18T15:57:56.028Z,97734.19
2017-11-18T16:00:40.621Z,97724.86
2017-11-18T16:03:08.959Z,97713.52
2017-11-18T16:05:36.926Z,97713.83
2017-11-18T16:08:04.485Z,97718.23
2017-11-18T16:10:32.288Z,97710.84
2017-11-18T16:13:00.015Z,97705.44
2017-11-18T16:15:27.571Z,97702.17
2017-11-18T16:17:55.590Z,97705.78
2017-11-18T16:20:23.201Z,97704.26
2017-11-18T16:22:50.776Z,97697.66
2017-11-18T16:25:18.525Z,97707.73
2017-11-18T16:27:46.083Z,97708.53
2017-11-18T16:30:13.595Z,97708.53
2017-11-18T16:32:41.405Z,97708.67
2017-11-18T16:35:08.973Z,97708.38
2017-11-18T16:37:36.544Z,97710.30
2017-11-18T16:40:04.267Z,97715.16
2017-11-18T16:42:32.153Z,97719.79
2017-11-18T16:44:59.721Z,97718.40
2017-11-18T16:47:28.402Z,97722.59
2017-11-18T16:49:55.951Z,97714.42
2017-11-18T16:52:23.518Z,97714.50
2017-11-18T16:54:51.265Z,97715.69
2017-11-18T16:57:18.784Z,97714.98
2017-11-18T16:59:46.405Z,97713.53
2017-11-18T17:02:14.164Z,97709.03
2017-11-18T17:04:41.722Z,97717.62
2017-11-18T17:07:09.387Z,97717.31
2017-11-18T17:09:37.354Z,97715.33
2017-11-18T17:12:05.534Z,97716.70
2017-11-18T17:14:33.087Z,97716.34
2017-11-18T17:17:00.792Z,97710.45
2017-11-18T17:19:28.315Z,97719.66
2017-11-18T17:21:55.892Z,97711.30
2017-11-18T17:24:23.547Z,97720.61
2017-11-18T17:26:51.089Z,97724.52
2017-11-18T17:29:18.600Z,97728.08
2017-11-18T17:31:46.409Z,97732.51
2017-11-18T17:34:14.071Z,97723.20
2017-11-18T17:36:41.631Z,97723.64
2017-11-18T17:39:09.381Z,97720.22
2017-11-18T17:41:37.127Z,97727.59
2017-11-18T17:44:04.732Z,97723.16
2017-11-18T17:46:32.668Z,97730.91
2017-11-18T17:49:00.200Z,97719.97
2017-11-18T17:51:27.769Z,97721.10
2017-11-18T17:53:55.443Z,97706.57
2017-11-18T17:56:22.965Z,97713.49
2017-11-18T17:58:50.488Z,97713.83
2017-11-18T18:01:18.244Z,97719.97
2017-11-18T18:03:45.764Z,97711.97
2017-11-18T18:06:13.378Z,97710.09
2017-11-18T18:08:41.253Z,97706.10
2017-11-18T18:11:08.828Z,97707.47
2017-11-18T18:13:36.343Z,97702.26
2017-11-18T18:16:04.188Z,97710.73
2017-11-18T18:18:31.715Z,97699.61
2017-11-18T18:20:59.241Z,97702.25
2017-11-18T18:23:27.013Z,97707.89
2017-11-18T18:25:54.620Z,97699.43
2017-11-18T18:28:22.187Z,97707.30
2017-11-18T18:30:49.877Z,97710.55
2017-11-18T18:33:17.476Z,97703.22
2017-11-18T18:35:45.127Z,97701.90
2017-11-18T18:38:12.966Z,97701.97
2017-11-18T18:40:40.642Z,97700.19
2017-11-18T18:43:08.492Z,97699.48
2017-11-18T18:45:36.664Z,97698.81
2017-11-18T18:48:04.428Z,97698.40
2017-11-18T18:50:31.988Z,97693.00
2017-11-18T18:52:59.948Z,97686.70
2017-11-18T18:55:27.855Z,97686.09
2017-11-18T18:57:55.587Z,97685.24
2017-11-18T19:00:23.760Z,97679.55
2017-11-18T19:02:51.524Z,97683.16
2017-11-18T19:05:19.287Z,97677.41
2017-11-18T19:07:47.564Z,97672.34
2017-11-18T19:10:15.241Z,97660.05
2017-11-18T19:12:42.903Z,97659.60
2017-11-18T19:15:11.267Z,97663.73
2017-11-18T19:17:38.795Z,97665.67
2017-11-18T19:20:06.502Z,97664.55
2017-11-18T19:22:34.166Z,97661.16
2017-11-18T19:25:01.913Z,97667.88
2017-11-18T19:27:29.662Z,97657.72
2017-11-18T19:29:57.466Z,97649.80
2017-11-18T19:32:25.106Z,97651.59
2017-11-18T19:34:52.763Z,97646.99
2017-11-18T19:37:20.713Z,97647.34
2017-11-18T19:39:48.245Z,97633.02
2017-11-18T19:42:15.854Z,97629.16
2017-11-18T19:44:43.613Z,97626.84
2017-11-18T19:47:11.173Z,97624.28
2017-11-18T19:49:38.733Z,97623.83
2017-11-18T19:52:06.495Z,97631.95
2017-11-18T19:54:34.097Z,97638.34
2017-11-18T19:57:01.628Z,97623.13
2017-11-18T19:59:29.481Z,97618.69
2017-11-18T20:01:57.845Z,97616.09
2017-11-18T20:04:25.624Z,97622.33
2017-11-18T20:06:53.694Z,97624.72
2017-11-18T20:09:21.418Z,97621.56
2017-11-18T20:11:48.950Z,97618.05
2017-11-18T20:14:16.695Z,97609.91
2017-11-18T20:16:44.391Z,97606.26
2017-11-18T20:19:12.484Z,97603.00
2017-11-18T20:21:40.248Z,97598.06
2017-11-18T20:24:07.920Z,97582.17
2017-11-18T20:26:35.532Z,97578.58
2017-11-18T20:29:03.572Z,97582.69
2017-11-18T20:31:31.333Z,97571.95
2017-11-18T20:33:59.099Z,97576.11
2017-11-18T20:36:27.067Z,97566.02
2017-11-18T20:38:54.651Z,97566.56
2017-11-18T20:41:22.595Z,97563.67
2017-11-18T20:43:51.322Z,97561.17
2017-11-18T20:46:19.146Z,97563.36
2017-11-18T20:48:47.056Z,97567.27
2017-11-18T20:51:15.096Z,97564.27
2017-11-18T20:53:42.926Z,97555.62
2017-11-18T20:56:10.609Z,97558.17
2017-11-18T20:58:38.682Z,97542.86
2017-11-18T21:01:06.548Z,97537.89
2017-11-18T21:03:34.414Z,97530.53
2017-11-18T21:06:03.719Z,97525.09
2017-11-18T21:08:31.888Z,97532.42
2017-11-18T21:10:59.650Z,97533.84
2017-11-18T21:13:27.736Z,97528.54
2017-11-18T21:15:56.026Z,97533.88
2017-11-18T21:18:23.634Z,97532.98
2017-11-18T21:20:52.483Z,97528.24
2017-11-18T21:23:20.222Z,97530.52
2017-11-18T21:25:47.786Z,97525.06
2017-11-18T21:28:16.358Z,97515.32
2017-11-18T21:30:44.333Z,97507.89
2017-11-18T21:33:11.975Z,97500.12
2017-11-18T21:35:39.956Z,97496.83
2017-11-18T21:38:07.820Z,97489.22
2017-11-18T21:40:35.630Z,97490.36
2017-11-18T21:43:04.123Z,97496.77
2017-11-18T21:45:32.033Z,97491.53
2017-11-18T21:47:59.568Z,97482.47
2017-11-18T21:50:27.458Z,97489.80
2017-11-18T21:52:55.232Z,97493.27
2017-11-18T21:55:23.621Z,97492.83
2017-11-18T21:57:51.456Z,97487.59
2017-11-18T22:00:19.767Z,97489.44
2017-11-18T22:02:47.620Z,97474.48
2017-11-18T22:05:15.684Z,97472.66
2017-11-18T22:07:43.956Z,97459.02
2017-11-18T22:10:11.513Z,97473.23
2017-11-18T22:12:39.329Z,97478.84
2017-11-18T22:15:06.919Z,97467.30
2017-11-18T22:17:34.513Z,97472.01
2017-11-18T22:20:02.163Z,97463.20
2017-11-18T22:22:29.721Z,97454.36
2017-11-18T22:24:58.312Z,97456.61
2017-11-18T22:27:26.174Z,97457.35
2017-11-18T22:29:54.043Z,97453.20
2017-11-18T22:32:22.006Z,97447.70
2017-11-18T22:34:50.589Z,97451.84
2017-11-18T22:37:18.369Z,97454.63
2017-11-18T22:39:45.975Z,97445.81
2017-11-18T22:42:13.779Z,97452.16
2017-11-18T22:44:41.441Z,97459.14
2017-11-18T22:47:09.203Z,97471.77
2017-11-18T22:49:37.077Z,97473.13
2017-11-18T22:52:04.596Z,97463.73
2017-11-18T22:54:32.107Z,97453.89
2017-11-18T22:56:59.706Z,97447.19
2017-11-18T22:59:27.232Z,97451.27
2017-11-18T23:01:54.865Z,97445.13
2017-11-18T23:04:22.723Z,97447.76
2017-11-18T23:06:50.250Z,97429.89
2017-11-18T23:09:17.768Z,97436.02
2017-11-18T23:11:45.409Z,97438.22
2017-11-18T23:14:12.924Z,97442.16
2017-11-18T23:16:40.435Z,97436.52
2017-11-18T23:19:08.190Z,97431.52
2017-11-18T23:21:35.751Z,97442.47
2017-11-18T23:24:03.307Z,97429.84
2017-11-18T23:26:31.109Z,97412.01
2017-11-18T23:28:58.624Z,97414.70
2017-11-18T23:31:26.156Z,97406.72
2017-11-18T23:33:53.851Z,97411.98
2017-11-18T23:36:21.417Z,97405.52
2017-11-18T23:38:48.943Z,97396.45
2017-11-18T23:41:16.748Z,97387.84
2017-11-18T23:46:20.049Z,97385.16
2017-11-18T23:48:47.583Z,97392.06
2017-11-18T23:51:15.124Z,97397.05
2017-11-18T23:53:43.242Z,97395.09
2017-11-18T23:56:10.967Z,97371.27
2017-11-18T23:58:38.576Z,97372.94
